Strona główna
METAR-TAF:

METAR-TAF

Lotnisko :

Port lotniczy Dżudda

Dżudda, Arabia Saudyjska

Szerokość geograficzna: 21-42N, Długość geograficzna: 039-11E, wysokość: 15 m

Aktualna obserwacja pogody

Raport powstał 19 minut temu, godzina 06:00 UTC
Wiatr 5 kt od północno-północny wschód
Temperatura 25°C
Wilgotność 54%
Ciśnienie 1017 hPa
Widzialność 10 km lub więcej
Mało chmury na wysokości 3500 ft

METAR: OEJN 100600Z 02005KT 9999 FEW035 25/15 Q1017 NOSIG

czas: 09:19 (06:19 UTC)

Prognoza

Raport powstał 1 godzina i 19 minut temu, godzina 05:00 UTC
Prognoza ważna od 10 godzina 06 UTC do 11 godzina 12 UTC
Wiatr 14 kt od północno-północny zachód
Widzialność 10 km lub więcej
Rozproszone chmury na wysokości 4000 ft

TAF: OEJN 100500Z 1006/1112 33014KT 9999 SCT040

Obserwacja i prognoza pogody dla ponad 4000 lotnisk (raport METAR i TAF).

Dostępne stacje oznaczono żółtymi i czerwonymi punktami na mapie.

Najedź kursorem aby zobaczyć nazwę stacji.

Kliknij aby zobaczyć obserwacje i prognozy pogody.

Aby zmienić mapę: kliknij na zielony przycisk z czarnym krzyżykiem, aby powiększyć; na zielony przycisk z myślnikiem, aby pomniejszyć; na zielone strzałki, aby przejść do map sąsiednich.


METAR-TAF: